Time;durP1;ratioP1;P1;durP2;ratioP2;P2;SDS_P1;SDS_P2;PMS_P1;PMS_P2;Temp;Humidity;BMP_temperature;BMP_pressure;BME280_temperature;BME280_humidity;BME280_pressure;Samples;Min_cycle;Max_cycle;Signal;HPM_P1;HPM_P2
2022/11/24 00:01:05;;;;;;;58.83;30.67;;;2.40;99.90;;;;;;5030000;28;20037;-59
2022/11/24 00:03:31;;;;;;;64.90;30.33;;;2.40;99.90;;;;;;5030033;28;20029;-60
2022/11/24 00:06:04;;;;;;;63.90;31.35;;;2.40;99.90;;;;;;5029596;28;20026;-60
2022/11/24 00:08:30;;;;;;;61.33;29.75;;;2.40;99.90;;;;;;5030102;28;20053;-62
2022/11/24 00:11:01;;;;;;;62.13;31.83;;;2.40;99.90;;;;;;5029513;28;20053;-59
2022/11/24 00:13:26;;;;;;;66.80;32.70;;;2.40;99.90;;;;;;5028417;28;20507;-61
2022/11/24 00:15:52;;;;;;;65.95;34.17;;;2.40;99.90;;;;;;5022466;28;20025;-60
2022/11/24 00:18:18;;;;;;;65.80;33.90;;;2.40;99.90;;;;;;5029399;28;20406;-62
2022/11/24 00:20:51;;;;;;;59.50;32.03;;;2.40;99.90;;;;;;5029067;28;20060;-67
2022/11/24 00:23:17;;;;;;;59.90;31.67;;;2.50;99.90;;;;;;5027887;28;20425;-60
2022/11/24 00:25:42;;;;;;;65.35;30.63;;;2.40;99.90;;;;;;5029238;28;20100;-61
2022/11/24 00:28:08;;;;;;;73.53;34.72;;;2.40;99.90;;;;;;5029692;28;20048;-64
2022/11/24 00:30:33;;;;;;;74.30;34.70;;;2.40;99.90;;;;;;5029439;28;20104;-58
2022/11/24 00:32:59;;;;;;;73.30;36.05;;;2.40;99.90;;;;;;5029000;28;20032;-59
2022/11/24 00:35:25;;;;;;;80.03;37.10;;;2.40;99.90;;;;;;5029308;28;20022;-58
2022/11/24 00:37:52;;;;;;;84.38;38.70;;;2.40;99.90;;;;;;5029343;28;20483;-60
2022/11/24 00:40:18;;;;;;;;;;;2.40;99.90;;;;;;5029436;28;20056;-63
2022/11/24 00:42:43;;;;;;;82.43;37.90;;;2.40;99.90;;;;;;5029104;28;20619;-61
2022/11/24 00:45:09;;;;;;;83.22;38.08;;;2.40;99.90;;;;;;5029096;28;20029;-64
2022/11/24 00:47:34;;;;;;;86.70;42.42;;;2.40;99.90;;;;;;5029650;28;20379;-63
2022/11/24 00:50:00;;;;;;;78.30;36.38;;;2.40;99.90;;;;;;5029330;28;20457;-58
2022/11/24 00:52:26;;;;;;;77.90;38.65;;;2.40;99.90;;;;;;5029541;28;20053;-57
2022/11/24 00:54:52;;;;;;;77.60;38.05;;;2.40;99.90;;;;;;5026558;28;20044;-60
2022/11/24 00:57:17;;;;;;;78.25;37.80;;;2.40;99.90;;;;;;5029173;28;20555;-61
2022/11/24 00:59:43;;;;;;;73.70;37.45;;;2.40;99.90;;;;;;5019228;28;20025;-60
2022/11/24 01:02:09;;;;;;;74.32;37.10;;;2.40;99.90;;;;;;5030080;28;20037;-62
2022/11/24 01:04:34;;;;;;;72.47;35.03;;;2.40;99.90;;;;;;5030358;28;20495;-64
2022/11/24 01:07:00;;;;;;;75.07;36.75;;;2.40;99.90;;;;;;5030221;28;20040;-60
2022/11/24 01:09:25;;;;;;;75.13;39.17;;;2.50;99.90;;;;;;5029790;28;20021;-64
2022/11/24 01:12:00;;;;;;;76.20;36.65;;;2.50;99.90;;;;;;5030130;28;20089;-62
2022/11/24 01:14:27;;;;;;;81.68;39.10;;;2.50;99.90;;;;;;5029968;28;20024;-60
2022/11/24 01:16:53;;;;;;;76.65;38.65;;;2.50;99.90;;;;;;5030158;28;20068;-61
2022/11/24 01:19:19;;;;;;;78.18;39.22;;;2.50;99.90;;;;;;5030201;28;20021;-61
2022/11/24 01:21:45;;;;;;;77.35;36.17;;;2.50;99.90;;;;;;5029904;28;20056;-61
2022/11/24 01:24:12;;;;;;;77.93;36.72;;;2.50;99.90;;;;;;5029654;28;20060;-59
2022/11/24 01:26:38;;;;;;;74.80;39.05;;;2.50;99.90;;;;;;5030013;28;20030;-59
2022/11/24 01:29:03;;;;;;;85.05;44.13;;;2.50;99.90;;;;;;5011827;28;20021;-65
2022/11/24 01:31:29;;;;;;;72.05;37.80;;;2.50;99.90;;;;;;5012260;28;20369;-61
2022/11/24 01:33:55;;;;;;;77.70;38.92;;;2.50;99.90;;;;;;5029864;28;20037;-58
2022/11/24 01:36:21;;;;;;;76.80;38.95;;;2.40;99.90;;;;;;5029726;28;20033;-58
2022/11/24 01:38:47;;;;;;;77.60;39.07;;;2.40;99.90;;;;;;5029819;28;20037;-65
2022/11/24 01:41:19;;;;;;;81.10;40.05;;;2.40;99.90;;;;;;5029665;28;20117;-64
2022/11/24 01:43:46;;;;;;;77.70;38.50;;;2.40;99.90;;;;;;5029713;28;20036;-66
2022/11/24 01:46:21;;;;;;;79.68;40.20;;;2.40;99.90;;;;;;5011880;28;20029;-62
2022/11/24 01:49:07;;;;;;;75.55;38.50;;;2.40;99.90;;;;;;5029600;28;20509;-60
2022/11/24 01:51:35;;;;;;;85.45;41.60;;;2.40;99.90;;;;;;5012476;28;20034;-62
2022/11/24 01:54:06;;;;;;;83.18;39.95;;;2.40;99.90;;;;;;5029684;28;20381;-59
2022/11/24 01:56:34;;;;;;;84.80;37.47;;;2.40;99.90;;;;;;5029569;28;20022;-66
2022/11/24 01:59:03;;;;;;;81.80;42.33;;;2.50;99.90;;;;;;5029542;28;20033;-59
2022/11/24 02:01:30;;;;;;;84.30;41.40;;;2.50;99.90;;;;;;5029820;28;20095;-65
2022/11/24 02:03:57;;;;;;;87.47;39.00;;;2.50;99.90;;;;;;5029563;28;20384;-62
2022/11/24 02:06:26;;;;;;;77.22;37.45;;;2.50;99.90;;;;;;5029498;28;20392;-63
2022/11/24 02:09:17;;;;;;;82.38;38.28;;;2.50;99.90;;;;;;5029585;28;20022;-59
2022/11/24 02:11:44;;;;;;;86.75;39.03;;;2.50;99.90;;;;;;5028447;28;20033;-67
2022/11/24 02:14:12;;;;;;;87.22;40.90;;;2.50;99.90;;;;;;5029698;28;20029;-60
2022/11/24 02:16:39;;;;;;;92.22;40.10;;;2.40;99.90;;;;;;5029312;28;20026;-65
2022/11/24 02:19:09;;;;;;;;;;;2.50;99.90;;;;;;5030120;28;20037;-59
2022/11/24 02:21:34;;;;;;;85.30;38.90;;;2.50;99.90;;;;;;5030264;28;19917;-59
2022/11/24 02:24:10;;;;;;;91.95;41.08;;;2.50;99.90;;;;;;5032834;28;20031;-60
2022/11/24 02:26:47;;;;;;;86.18;40.35;;;2.50;99.90;;;;;;5033014;28;20042;-63
2022/11/24 02:29:13;;;;;;;81.05;39.15;;;2.50;99.90;;;;;;5033436;28;20038;-62
2022/11/24 02:31:43;;;;;;;84.18;39.88;;;2.50;99.90;;;;;;5033151;28;20029;-63
2022/11/24 02:34:09;;;;;;;95.03;40.60;;;2.50;99.90;;;;;;5026516;28;20472;-66
2022/11/24 02:36:34;;;;;;;93.60;43.40;;;2.50;99.90;;;;;;5032398;28;20029;-60
2022/11/24 02:39:00;;;;;;;91.85;41.63;;;2.50;99.90;;;;;;5032824;28;20116;-58
2022/11/24 02:41:27;;;;;;;97.97;43.65;;;2.50;99.90;;;;;;5033176;28;20431;-58
2022/11/24 02:43:58;;;;;;;;;;;2.50;99.90;;;;;;5033647;28;20028;-64
2022/11/24 02:46:24;;;;;;;98.68;41.33;;;2.50;99.90;;;;;;5032716;28;20368;-60
2022/11/24 02:48:49;;;;;;;97.40;41.35;;;2.50;99.90;;;;;;5032564;28;20072;-63
2022/11/24 02:51:15;;;;;;;95.88;42.15;;;2.40;99.90;;;;;;5032588;28;20056;-65
2022/11/24 02:53:41;;;;;;;104.03;44.53;;;2.40;99.90;;;;;;5012639;28;20038;-60
2022/11/24 02:56:07;;;;;;;93.63;40.17;;;2.40;99.90;;;;;;5011391;28;20022;-58
2022/11/24 02:58:32;;;;;;;97.38;41.78;;;2.40;99.90;;;;;;5012827;28;20030;-59
2022/11/24 03:00:58;;;;;;;91.13;38.35;;;2.40;99.90;;;;;;5012678;28;20056;-61
2022/11/24 03:03:25;;;;;;;96.57;40.38;;;2.40;99.90;;;;;;5012577;28;20065;-57
2022/11/24 03:05:50;;;;;;;93.27;39.20;;;2.40;99.90;;;;;;5012612;28;20037;-62
2022/11/24 03:08:16;;;;;;;90.97;40.53;;;2.40;99.90;;;;;;5012245;28;20022;-58
2022/11/24 03:10:42;;;;;;;88.53;38.30;;;2.40;99.90;;;;;;5012554;28;20536;-57
2022/11/24 03:13:07;;;;;;;94.07;38.75;;;2.50;99.90;;;;;;4994715;28;20485;-56
2022/11/24 03:15:34;;;;;;;87.85;37.22;;;2.50;99.90;;;;;;5012312;28;20496;-58
2022/11/24 03:17:59;;;;;;;90.97;38.80;;;2.50;99.90;;;;;;5012162;28;20033;-57
2022/11/24 03:20:25;;;;;;;92.13;38.55;;;2.50;99.90;;;;;;5012276;28;20033;-58
2022/11/24 03:22:51;;;;;;;86.68;38.05;;;2.50;99.90;;;;;;5012030;28;20029;-58
2022/11/24 03:25:17;;;;;;;90.60;40.30;;;2.50;99.90;;;;;;5012281;28;20057;-59
2022/11/24 03:27:42;;;;;;;88.20;36.05;;;2.50;99.90;;;;;;5012308;28;20026;-57
2022/11/24 03:30:08;;;;;;;84.90;35.78;;;2.50;99.90;;;;;;5031308;28;20488;-60
2022/11/24 03:32:34;;;;;;;88.00;39.47;;;2.50;99.90;;;;;;5031939;28;20046;-57
2022/11/24 03:35:00;;;;;;;82.68;38.97;;;2.50;99.90;;;;;;5031703;28;20028;-59
2022/11/24 03:37:25;;;;;;;83.57;37.45;;;2.50;99.90;;;;;;5013968;28;20044;-60
2022/11/24 03:39:51;;;;;;;86.72;38.25;;;2.50;99.90;;;;;;5014173;28;20025;-60
2022/11/24 03:42:17;;;;;;;90.90;40.97;;;2.50;99.90;;;;;;5031483;28;20037;-66
2022/11/24 03:44:42;;;;;;;103.40;42.13;;;2.60;99.90;;;;;;5031593;28;20111;-61
2022/11/24 03:47:10;;;;;;;89.70;38.97;;;2.50;99.90;;;;;;5031660;28;20057;-61
2022/11/24 03:49:35;;;;;;;84.63;39.00;;;2.50;99.90;;;;;;5031333;28;20541;-62
2022/11/24 03:52:01;;;;;;;93.22;38.88;;;2.50;99.90;;;;;;5031389;28;20105;-58
2022/11/24 03:54:27;;;;;;;88.13;38.95;;;2.40;99.90;;;;;;5031572;28;20022;-57
2022/11/24 03:56:52;;;;;;;88.40;39.42;;;2.40;99.90;;;;;;5031428;28;20376;-59
2022/11/24 03:59:18;;;;;;;84.72;38.78;;;2.40;99.90;;;;;;5031256;28;20087;-62
2022/11/24 04:01:44;;;;;;;98.10;42.67;;;2.40;99.90;;;;;;5031259;28;20041;-63
2022/11/24 04:04:11;;;;;;;96.70;43.35;;;2.50;99.90;;;;;;5031154;28;20045;-61
2022/11/24 04:06:37;;;;;;;92.68;39.97;;;2.50;99.90;;;;;;5013538;28;20033;-60
2022/11/24 04:09:02;;;;;;;98.32;42.67;;;2.50;99.90;;;;;;5031330;28;20025;-62
2022/11/24 04:14:13;;;;;;;96.20;42.78;;;2.40;99.90;;;;;;5031365;28;20159;-59
2022/11/24 04:16:38;;;;;;;91.07;41.20;;;2.40;99.90;;;;;;5030903;28;20527;-58
2022/11/24 04:19:05;;;;;;;102.85;43.05;;;2.50;99.90;;;;;;5013056;28;20485;-58
2022/11/24 04:21:30;;;;;;;87.00;40.67;;;2.50;99.90;;;;;;5030726;28;20037;-63
2022/11/24 04:23:56;;;;;;;90.38;40.92;;;2.40;99.90;;;;;;5031017;28;20268;-61
2022/11/24 04:26:22;;;;;;;91.75;41.30;;;2.40;99.90;;;;;;5012926;28;20060;-58
2022/11/24 04:28:48;;;;;;;99.07;43.53;;;2.40;99.90;;;;;;5022951;28;20029;-57
2022/11/24 04:31:13;;;;;;;88.95;40.40;;;2.40;99.90;;;;;;4993412;28;20049;-56
2022/11/24 04:33:39;;;;;;;96.75;43.03;;;2.40;99.90;;;;;;5010764;28;20437;-57
2022/11/24 04:36:05;;;;;;;92.20;41.83;;;2.40;99.90;;;;;;5010931;28;20030;-57
2022/11/24 04:38:31;;;;;;;87.07;40.20;;;2.40;99.90;;;;;;5010891;28;20040;-58
2022/11/24 04:41:03;;;;;;;92.88;41.20;;;2.50;99.90;;;;;;5010799;28;20358;-57
2022/11/24 04:43:29;;;;;;;95.22;39.97;;;2.50;99.90;;;;;;5010909;28;20038;-61
2022/11/24 04:45:55;;;;;;;90.18;41.15;;;2.50;99.90;;;;;;5010440;28;20029;-64
2022/11/24 04:48:21;;;;;;;97.55;40.97;;;2.50;99.90;;;;;;5010932;28;20421;-61
2022/11/24 04:50:47;;;;;;;98.68;42.85;;;2.50;99.90;;;;;;4993072;28;20033;-62
2022/11/24 04:53:13;;;;;;;145.45;62.20;;;2.40;99.90;;;;;;4993080;28;20057;-63
2022/11/24 04:55:39;;;;;;;126.15;52.42;;;2.40;99.90;;;;;;5010471;28;20533;-64
2022/11/24 04:58:09;;;;;;;91.85;42.65;;;2.30;99.90;;;;;;5010677;28;20073;-59
2022/11/24 05:00:35;;;;;;;103.57;42.80;;;2.30;99.90;;;;;;5010423;28;20064;-58
2022/11/24 05:03:01;;;;;;;91.53;41.05;;;2.30;99.90;;;;;;5010527;28;20780;-58
2022/11/24 05:05:26;;;;;;;88.93;40.15;;;2.40;99.90;;;;;;5010301;28;20037;-58
2022/11/24 05:07:52;;;;;;;88.50;39.13;;;2.40;99.90;;;;;;5010281;28;20033;-58
2022/11/24 05:10:36;;;;;;;80.90;36.25;;;2.40;99.90;;;;;;5010434;28;20040;-61
2022/11/24 05:13:05;;;;;;;86.65;37.53;;;2.50;99.90;;;;;;5010312;28;20026;-62
2022/11/24 05:15:31;;;;;;;87.63;39.03;;;2.40;99.90;;;;;;5010384;28;20056;-57
2022/11/24 05:17:57;;;;;;;90.90;41.95;;;2.30;99.90;;;;;;5010344;28;20018;-64
2022/11/24 05:20:23;;;;;;;92.43;39.00;;;2.30;99.90;;;;;;5010245;28;20432;-59
2022/11/24 05:22:49;;;;;;;91.68;37.80;;;2.30;99.90;;;;;;5010328;28;20038;-62
2022/11/24 05:25:15;;;;;;;82.72;37.95;;;2.30;99.90;;;;;;5010125;28;20438;-65
2022/11/24 05:27:41;;;;;;;91.82;40.00;;;2.30;99.90;;;;;;5010131;28;20022;-62
2022/11/24 05:30:07;;;;;;;90.05;42.03;;;2.30;99.90;;;;;;5028366;28;20025;-63
2022/11/24 05:32:33;;;;;;;94.07;43.38;;;2.30;99.90;;;;;;5029897;28;20025;-58
2022/11/24 05:35:01;;;;;;;85.97;41.13;;;2.30;99.90;;;;;;5029715;28;20032;-57
2022/11/24 05:37:30;;;;;;;77.70;38.20;;;2.30;99.90;;;;;;5030020;28;20025;-62
2022/11/24 05:39:55;;;;;;;86.55;40.22;;;2.40;99.90;;;;;;5029748;28;20354;-62
2022/11/24 05:42:39;;;;;;;88.85;41.63;;;2.40;99.90;;;;;;5011949;28;20443;-65
2022/11/24 05:45:08;;;;;;;91.03;42.30;;;2.40;99.90;;;;;;5010072;28;20560;-59
2022/11/24 05:47:34;;;;;;;96.80;43.83;;;2.40;99.90;;;;;;5010308;28;20037;-64
2022/11/24 05:50:00;;;;;;;89.17;39.67;;;2.40;99.90;;;;;;4992043;28;20029;-62
2022/11/24 05:52:25;;;;;;;95.40;41.47;;;2.40;99.90;;;;;;5028338;28;20040;-62
2022/11/24 05:54:51;;;;;;;85.53;39.58;;;2.40;99.90;;;;;;5029161;28;20377;-62
2022/11/24 05:57:17;;;;;;;82.53;39.80;;;2.40;99.90;;;;;;5031368;28;20018;-59
2022/11/24 05:59:43;;;;;;;97.00;41.22;;;2.40;99.90;;;;;;5032915;28;20041;-57
2022/11/24 06:02:08;;;;;;;91.72;42.13;;;2.40;99.90;;;;;;5032594;28;20564;-66
2022/11/24 06:04:35;;;;;;;95.03;41.45;;;2.40;99.90;;;;;;5033130;28;20104;-62
2022/11/24 06:07:01;;;;;;;97.28;43.72;;;2.40;99.90;;;;;;5032885;28;20036;-64
2022/11/24 06:09:27;;;;;;;93.73;44.20;;;2.40;99.90;;;;;;5032601;28;20025;-59
2022/11/24 06:11:53;;;;;;;91.13;41.38;;;2.40;99.90;;;;;;5032649;28;20021;-58
2022/11/24 06:14:19;;;;;;;95.53;45.15;;;2.40;99.90;;;;;;5033553;28;20025;-58
2022/11/24 06:16:45;;;;;;;92.82;44.05;;;2.40;99.90;;;;;;5033041;28;20037;-58
2022/11/24 06:19:10;;;;;;;103.00;45.05;;;2.40;99.90;;;;;;5031943;28;20072;-58
2022/11/24 06:21:36;;;;;;;112.93;53.33;;;2.30;99.90;;;;;;5031701;28;20048;-60
2022/11/24 06:24:02;;;;;;;109.18;51.85;;;2.40;99.90;;;;;;5031911;28;20026;-59
2022/11/24 06:26:28;;;;;;;111.68;52.28;;;2.30;99.90;;;;;;5029155;28;20561;-60
2022/11/24 06:28:53;;;;;;;114.38;52.22;;;2.30;99.90;;;;;;5032311;28;20032;-64
2022/11/24 06:31:19;;;;;;;110.68;51.63;;;2.30;99.90;;;;;;5022906;28;20440;-65
2022/11/24 06:33:45;;;;;;;109.57;50.08;;;2.30;99.90;;;;;;5032578;28;20021;-63
2022/11/24 06:36:13;;;;;;;111.45;50.10;;;2.30;99.90;;;;;;5032823;28;20041;-63
2022/11/24 06:38:38;;;;;;;108.47;48.75;;;2.30;99.90;;;;;;5032245;28;20091;-64
2022/11/24 06:41:11;;;;;;;105.47;48.95;;;2.30;99.90;;;;;;5032672;28;20551;-61
2022/11/24 06:43:37;;;;;;;116.85;49.90;;;2.30;99.90;;;;;;5032565;28;20109;-58
2022/11/24 06:46:03;;;;;;;117.20;50.10;;;2.30;99.90;;;;;;5033209;28;20108;-61
2022/11/24 06:48:29;;;;;;;108.47;49.63;;;2.30;99.90;;;;;;5033040;28;20034;-66
2022/11/24 06:50:59;;;;;;;114.72;49.05;;;2.30;99.90;;;;;;5032735;28;20029;-65
2022/11/24 06:53:28;;;;;;;116.82;50.53;;;2.30;99.90;;;;;;5033128;28;20030;-62
2022/11/24 06:55:59;;;;;;;121.50;51.65;;;2.30;99.90;;;;;;5032789;28;20030;-58
2022/11/24 06:58:25;;;;;;;114.68;50.67;;;2.20;99.90;;;;;;5031427;28;20028;-58
2022/11/24 07:00:51;;;;;;;118.13;52.60;;;2.20;99.90;;;;;;5031096;28;20041;-59
2022/11/24 07:03:18;;;;;;;122.90;55.05;;;2.20;99.90;;;;;;5030778;28;20039;-60
2022/11/24 07:05:44;;;;;;;;;;;2.30;99.90;;;;;;5032727;28;20034;-66
2022/11/24 07:08:09;;;;;;;121.43;50.83;;;2.20;99.90;;;;;;5029686;28;19916;-66
2022/11/24 07:10:36;;;;;;;128.50;50.85;;;2.20;99.90;;;;;;5032234;28;20041;-66
2022/11/24 07:13:04;;;;;;;123.47;51.53;;;2.20;99.90;;;;;;5032067;28;20021;-62
2022/11/24 07:15:30;;;;;;;117.15;50.47;;;2.20;99.90;;;;;;5032060;28;20459;-58
2022/11/24 07:17:55;;;;;;;117.57;50.17;;;2.20;99.90;;;;;;5032030;28;20100;-59
2022/11/24 07:20:21;;;;;;;117.72;49.28;;;2.20;99.90;;;;;;5031779;28;20615;-62
2022/11/24 07:22:46;;;;;;;124.97;50.38;;;2.20;99.90;;;;;;5029848;28;20053;-64
2022/11/24 07:25:13;;;;;;;122.43;49.92;;;2.20;99.90;;;;;;5030076;28;20055;-62
2022/11/24 07:27:40;;;;;;;124.70;51.75;;;2.20;99.90;;;;;;5030203;28;20511;-57
2022/11/24 07:30:07;;;;;;;118.65;51.85;;;2.10;99.90;;;;;;5030495;28;20038;-65
2022/11/24 07:32:32;;;;;;;;;;;2.10;99.90;;;;;;5032236;28;20032;-58
2022/11/24 07:34:58;;;;;;;121.22;49.95;;;2.10;99.90;;;;;;5031706;28;19913;-59
2022/11/24 07:37:24;;;;;;;129.82;52.30;;;2.00;99.90;;;;;;5031123;28;20034;-58
2022/11/24 07:39:49;;;;;;;145.52;57.15;;;2.00;99.90;;;;;;5031443;28;20076;-60
2022/11/24 07:42:15;;;;;;;124.93;48.83;;;2.10;99.90;;;;;;5031681;28;20033;-64
2022/11/24 07:44:41;;;;;;;135.60;51.20;;;2.00;99.90;;;;;;5031883;28;20053;-63
2022/11/24 07:47:06;;;;;;;141.15;52.60;;;2.00;99.90;;;;;;5031515;28;20108;-61
2022/11/24 07:49:32;;;;;;;129.82;52.90;;;2.00;99.90;;;;;;5031486;28;20026;-63
2022/11/24 07:51:57;;;;;;;127.55;50.67;;;1.90;99.90;;;;;;5031075;28;20056;-59
2022/11/24 07:54:23;;;;;;;133.43;53.33;;;2.00;99.90;;;;;;5031608;28;20021;-58
2022/11/24 07:56:49;;;;;;;121.10;50.50;;;2.00;99.90;;;;;;5031405;28;20025;-58
2022/11/24 07:59:14;;;;;;;130.50;51.15;;;2.00;99.90;;;;;;5031027;28;20373;-58
2022/11/24 08:01:40;;;;;;;127.22;54.40;;;2.10;99.90;;;;;;5031041;28;20081;-65
2022/11/24 08:04:05;;;;;;;137.43;55.75;;;2.10;99.90;;;;;;5031264;28;20025;-65
2022/11/24 08:06:31;;;;;;;145.10;59.28;;;2.10;99.90;;;;;;5031131;28;20477;-62
2022/11/24 08:08:57;;;;;;;126.28;51.65;;;2.10;99.90;;;;;;5031121;28;20017;-60
2022/11/24 08:11:25;;;;;;;127.53;51.93;;;2.10;99.90;;;;;;5029706;28;20030;-65
2022/11/24 08:13:51;;;;;;;118.82;50.45;;;2.10;99.90;;;;;;5031273;28;20260;-62
2022/11/24 08:16:18;;;;;;;135.35;51.40;;;2.10;99.90;;;;;;5031235;28;20025;-60
2022/11/24 08:18:57;;;;;;;130.30;53.45;;;2.00;99.90;;;;;;5030734;28;20021;-61
2022/11/24 08:21:23;;;;;;;132.20;53.38;;;2.00;99.90;;;;;;5030868;28;20485;-57
2022/11/24 08:23:49;;;;;;;119.53;51.05;;;2.00;99.90;;;;;;5031013;28;20112;-60
2022/11/24 08:26:17;;;;;;;119.53;53.42;;;2.00;99.90;;;;;;5030677;28;20607;-57
2022/11/24 08:28:44;;;;;;;123.35;54.10;;;2.00;99.90;;;;;;5030828;28;20020;-65
2022/11/24 08:31:13;;;;;;;117.80;49.50;;;2.00;99.90;;;;;;5030542;28;20033;-65
2022/11/24 08:33:39;;;;;;;112.20;51.15;;;2.00;99.90;;;;;;5029534;28;20034;-64
2022/11/24 08:36:07;;;;;;;122.68;55.17;;;2.00;99.90;;;;;;5030356;28;20032;-59
2022/11/24 08:38:33;;;;;;;107.60;50.33;;;2.00;99.90;;;;;;5030672;28;20033;-59
2022/11/24 08:41:04;;;;;;;112.72;47.03;;;1.90;99.90;;;;;;5029010;28;20044;-62
2022/11/24 08:43:29;;;;;;;119.10;48.67;;;1.90;99.90;;;;;;5030386;28;20028;-63
2022/11/24 08:46:02;;;;;;;110.60;48.97;;;1.90;99.90;;;;;;5030388;28;20033;-66
2022/11/24 08:48:29;;;;;;;119.60;51.15;;;2.00;99.90;;;;;;5030081;28;20037;-61
2022/11/24 08:50:55;;;;;;;115.03;50.42;;;2.00;99.90;;;;;;5029800;28;20045;-63
2022/11/24 08:53:20;;;;;;;114.18;48.47;;;2.00;99.90;;;;;;5030166;28;20116;-64
2022/11/24 08:55:46;;;;;;;112.22;46.95;;;1.90;99.90;;;;;;5030347;28;20108;-63
2022/11/24 08:58:12;;;;;;;120.43;52.88;;;1.90;99.90;;;;;;5012115;28;20018;-62
2022/11/24 09:00:37;;;;;;;128.48;51.03;;;1.80;99.90;;;;;;5030004;28;20044;-62
2022/11/24 09:03:03;;;;;;;124.72;51.85;;;1.80;99.90;;;;;;5030269;28;20033;-61
2022/11/24 09:05:28;;;;;;;130.07;53.85;;;1.80;99.90;;;;;;5030109;28;20042;-60
2022/11/24 09:07:54;;;;;;;119.55;51.95;;;1.90;99.90;;;;;;5030011;28;20037;-60
2022/11/24 09:10:20;;;;;;;129.40;53.22;;;1.90;99.90;;;;;;5029947;28;20036;-61
2022/11/24 09:12:46;;;;;;;125.10;50.25;;;1.90;99.90;;;;;;5029806;28;20496;-61
2022/11/24 09:15:15;;;;;;;136.45;53.90;;;2.00;99.90;;;;;;5029969;28;20380;-60
2022/11/24 09:17:40;;;;;;;125.20;54.45;;;2.00;99.90;;;;;;5029854;28;20107;-60
2022/11/24 09:20:06;;;;;;;123.15;54.75;;;2.00;99.90;;;;;;5029828;28;20473;-62
2022/11/24 09:22:32;;;;;;;137.43;55.40;;;2.10;99.90;;;;;;5029526;28;20575;-61
2022/11/24 09:24:58;;;;;;;125.32;51.67;;;2.10;99.90;;;;;;5029752;28;20073;-62
2022/11/24 09:27:23;;;;;;;120.10;50.60;;;2.10;99.90;;;;;;5029782;28;20080;-60
2022/11/24 09:29:49;;;;;;;112.35;48.90;;;2.20;99.90;;;;;;5030133;28;20476;-59
2022/11/24 09:32:15;;;;;;;107.68;47.55;;;2.20;99.90;;;;;;5029730;28;20029;-59
2022/11/24 09:34:40;;;;;;;109.10;46.88;;;2.20;99.90;;;;;;5024768;28;20524;-59
2022/11/24 09:37:06;;;;;;;98.85;44.83;;;2.20;99.90;;;;;;5009958;28;20026;-60
2022/11/24 09:39:32;;;;;;;108.63;47.97;;;2.20;99.90;;;;;;5009909;28;20022;-60
2022/11/24 09:42:25;;;;;;;103.95;43.63;;;2.20;99.90;;;;;;5010061;28;20041;-61
2022/11/24 09:45:15;;;;;;;99.28;45.35;;;2.20;99.90;;;;;;5009871;28;20038;-60
2022/11/24 09:48:09;;;;;;;113.88;47.85;;;2.10;99.90;;;;;;5010004;28;20161;-58
2022/11/24 09:50:37;;;;;;;105.50;45.25;;;2.20;99.90;;;;;;5022405;28;20069;-61
2022/11/24 09:53:08;;;;;;;113.25;48.30;;;2.10;99.90;;;;;;5028767;28;20057;-61
2022/11/24 09:55:49;;;;;;;115.45;46.92;;;2.10;99.90;;;;;;5026642;28;20028;-60
2022/11/24 09:58:37;;;;;;;121.28;49.58;;;2.10;99.90;;;;;;5033199;28;20022;-61
2022/11/24 10:01:30;;;;;;;119.73;49.23;;;2.10;99.90;;;;;;5027675;28;20025;-60
2022/11/24 10:03:56;;;;;;;124.60;47.95;;;2.10;99.90;;;;;;5020321;28;20280;-65
2022/11/24 10:06:58;;;;;;;131.02;53.83;;;2.10;99.90;;;;;;5025216;28;20357;-63
2022/11/24 10:09:38;;;;;;;126.03;50.97;;;2.10;99.90;;;;;;5024647;28;20037;-62
2022/11/24 10:12:13;;;;;;;127.68;51.58;;;2.10;99.90;;;;;;5028375;28;20021;-57
2022/11/24 10:14:48;;;;;;;169.82;59.25;;;2.20;99.90;;;;;;5029191;28;20107;-59
2022/11/24 10:17:25;;;;;;;154.73;58.95;;;2.20;99.90;;;;;;5029147;28;20029;-64
2022/11/24 10:20:11;;;;;;;140.80;54.87;;;2.20;99.90;;;;;;5029396;28;20025;-61
2022/11/24 10:22:49;;;;;;;129.82;52.33;;;2.20;99.90;;;;;;5029161;28;20359;-61
2022/11/24 10:25:17;;;;;;;;;;;2.10;99.90;;;;;;5029691;28;20049;-61
2022/11/24 10:27:48;;;;;;;;;;;2.20;99.90;;;;;;5029694;28;19912;-57
2022/11/24 10:30:19;;;;;;;116.72;46.65;;;2.20;99.90;;;;;;5029374;28;19912;-61
2022/11/24 10:32:48;;;;;;;137.63;50.40;;;2.20;99.90;;;;;;5029341;28;20104;-59
2022/11/24 10:35:21;;;;;;;120.65;46.42;;;2.10;99.90;;;;;;5029011;28;20021;-57
2022/11/24 10:38:26;;;;;;;119.97;49.97;;;2.20;99.90;;;;;;5029211;28;20030;-58
2022/11/24 10:41:04;;;;;;;144.45;56.17;;;2.10;99.90;;;;;;4991478;28;20045;-59
2022/11/24 10:43:29;;;;;;;140.45;53.88;;;2.10;99.90;;;;;;5031330;28;20105;-60
2022/11/24 10:46:21;;;;;;;132.25;53.95;;;2.10;99.90;;;;;;5032721;28;20112;-58
2022/11/24 10:48:56;;;;;;;118.85;50.90;;;2.10;99.90;;;;;;5032881;28;20358;-62
2022/11/24 10:51:43;;;;;;;128.02;53.90;;;2.10;99.90;;;;;;5032647;28;20079;-62
2022/11/24 10:54:16;;;;;;;136.25;54.33;;;2.10;99.90;;;;;;5032500;28;20025;-59
2022/11/24 10:56:43;;;;;;;126.90;51.97;;;2.10;99.90;;;;;;5032702;28;20156;-60
2022/11/24 10:59:24;;;;;;;;;;;2.10;99.90;;;;;;5032842;28;20108;-59
2022/11/24 11:01:51;;;;;;;117.65;48.50;;;2.00;99.90;;;;;;5032441;28;19970;-60
2022/11/24 11:04:24;;;;;;;119.05;49.40;;;2.00;99.90;;;;;;5032585;28;20022;-58
2022/11/24 11:06:50;;;;;;;118.90;47.55;;;2.00;99.90;;;;;;5032597;28;20078;-61
2022/11/24 11:09:19;;;;;;;122.05;50.13;;;1.90;99.90;;;;;;5031980;28;20026;-61
2022/11/24 11:11:48;;;;;;;124.53;49.55;;;2.00;99.90;;;;;;5032257;28;20030;-60
2022/11/24 11:14:31;;;;;;;125.72;48.83;;;2.00;99.90;;;;;;5032075;28;20033;-64
2022/11/24 11:16:57;;;;;;;125.38;51.17;;;2.00;99.90;;;;;;5032233;28;20040;-63
2022/11/24 11:19:39;;;;;;;121.20;49.90;;;2.00;99.90;;;;;;5032303;28;20022;-59
2022/11/24 11:22:11;;;;;;;120.63;50.88;;;2.00;99.90;;;;;;5032120;28;20037;-60
2022/11/24 11:24:38;;;;;;;125.22;51.50;;;2.10;99.90;;;;;;5031485;28;20045;-61
2022/11/24 11:27:19;;;;;;;125.43;49.92;;;2.10;99.90;;;;;;5032037;28;20036;-61
2022/11/24 11:29:46;;;;;;;121.60;51.03;;;2.20;99.90;;;;;;5032189;28;20030;-62
2022/11/24 11:32:23;;;;;;;116.53;47.53;;;2.20;99.90;;;;;;5032405;28;20022;-59
2022/11/24 11:34:51;;;;;;;118.43;51.75;;;2.20;99.90;;;;;;5032003;28;20037;-60
2022/11/24 11:37:18;;;;;;;120.68;51.60;;;2.30;99.90;;;;;;5014170;28;20025;-59
2022/11/24 11:39:53;;;;;;;117.15;50.22;;;2.30;99.90;;;;;;5031767;28;20075;-61
2022/11/24 11:42:34;;;;;;;105.57;46.85;;;2.30;99.90;;;;;;5031644;28;20108;-62
2022/11/24 11:45:24;;;;;;;113.97;46.33;;;2.30;99.90;;;;;;5031648;28;20031;-61
2022/11/24 11:47:59;;;;;;;119.72;49.60;;;2.40;99.90;;;;;;5032139;28;20113;-59
2022/11/24 11:50:53;;;;;;;112.97;49.40;;;2.40;99.90;;;;;;5031611;28;20048;-61
2022/11/24 11:53:31;;;;;;;108.72;47.72;;;2.50;99.90;;;;;;5031031;28;20111;-58
2022/11/24 11:56:25;;;;;;;112.20;47.25;;;2.50;99.90;;;;;;5021693;28;20101;-63
2022/11/24 11:59:09;;;;;;;100.57;45.35;;;2.60;99.90;;;;;;5011495;28;20772;-63
2022/11/24 12:01:50;;;;;;;100.22;45.90;;;2.60;99.90;;;;;;5010908;28;20038;-58
2022/11/24 12:04:32;;;;;;;104.85;46.53;;;2.60;99.90;;;;;;5011690;28;20018;-60
2022/11/24 12:07:10;;;;;;;98.45;44.67;;;2.70;99.90;;;;;;5011698;28;20045;-63
2022/11/24 12:09:46;;;;;;;103.13;44.95;;;2.70;99.90;;;;;;5011040;28;20077;-60
2022/11/24 12:12:11;;;;;;;88.68;42.28;;;2.70;99.90;;;;;;5011285;28;20026;-60
2022/11/24 12:14:54;;;;;;;99.78;43.15;;;2.70;99.90;;;;;;5011312;28;20473;-59
2022/11/24 12:17:44;;;;;;;85.90;41.65;;;2.60;99.90;;;;;;5011387;28;20160;-62
2022/11/24 12:20:42;;;;;;;96.13;43.47;;;2.70;99.90;;;;;;5011162;28;20026;-61
2022/11/24 12:23:41;;;;;;;104.18;45.63;;;2.70;99.90;;;;;;4995735;28;20045;-62
2022/11/24 12:26:23;;;;;;;81.47;39.15;;;2.70;99.90;;;;;;5011150;28;20053;-59
2022/11/24 12:29:13;;;;;;;98.15;42.83;;;2.60;99.90;;;;;;5011009;28;20057;-64
2022/11/24 12:31:55;;;;;;;98.60;43.75;;;2.60;99.90;;;;;;5011425;28;20044;-59
2022/11/24 12:34:51;;;;;;;90.53;40.78;;;2.70;99.90;;;;;;5011062;28;20073;-62
2022/11/24 12:37:46;;;;;;;78.57;38.30;;;2.70;99.90;;;;;;5010985;28;20026;-62
2022/11/24 12:40:33;;;;;;;73.60;34.25;;;2.70;99.90;;;;;;5010796;28;20037;-64
2022/11/24 12:43:04;;;;;;;75.50;35.28;;;2.80;99.90;;;;;;5009721;28;20615;-64
2022/11/24 12:45:59;;;;;;;67.68;33.67;;;2.80;99.90;;;;;;5010904;28;20430;-61
2022/11/24 12:48:49;;;;;;;81.50;37.67;;;2.80;99.90;;;;;;5009384;28;20028;-64
2022/11/24 12:51:41;;;;;;;74.50;34.47;;;2.80;99.90;;;;;;5008975;28;20807;-63